createdAt,value
2022-11-06T00:01:57.142Z,10.13
2022-11-06T00:04:25.166Z,10.00
2022-11-06T00:06:52.127Z,10.27
2022-11-06T00:09:21.588Z,8.50
2022-11-06T00:11:50.495Z,9.10
2022-11-06T00:14:19.091Z,9.27
2022-11-06T00:16:49.206Z,9.02
2022-11-06T00:19:17.510Z,10.40
2022-11-06T00:21:46.090Z,9.68
2022-11-06T00:24:15.567Z,9.55
2022-11-06T00:26:43.911Z,9.73
2022-11-06T00:29:14.654Z,9.55
2022-11-06T00:31:43.164Z,8.18
2022-11-06T00:34:12.689Z,9.25
2022-11-06T00:36:40.576Z,9.03
2022-11-06T00:39:08.395Z,8.80
2022-11-06T00:41:36.377Z,7.88
2022-11-06T00:44:05.091Z,8.65
2022-11-06T00:46:33.133Z,8.68
2022-11-06T00:49:00.988Z,9.18
2022-11-06T00:51:32.742Z,8.55
2022-11-06T00:54:03.922Z,7.72
2022-11-06T00:56:32.550Z,7.65
2022-11-06T00:59:01.434Z,7.75
2022-11-06T01:01:31.730Z,8.40
2022-11-06T01:06:32.010Z,7.63
2022-11-06T01:09:00.712Z,8.35
2022-11-06T01:11:46.441Z,8.20
2022-11-06T01:14:19.630Z,8.77
2022-11-06T01:16:47.586Z,7.88
2022-11-06T01:19:17.631Z,7.70
2022-11-06T01:21:48.213Z,7.55
2022-11-06T01:24:18.185Z,7.47
2022-11-06T01:27:05.326Z,7.15
2022-11-06T01:29:34.545Z,8.13
2022-11-06T01:32:02.452Z,7.25
2022-11-06T01:34:30.630Z,7.63
2022-11-06T01:37:00.042Z,7.97
2022-11-06T01:39:27.852Z,6.85
2022-11-06T01:41:56.268Z,7.57
2022-11-06T01:45:17.181Z,7.78
2022-11-06T01:47:45.611Z,7.03
2022-11-06T01:50:15.459Z,7.10
2022-11-06T01:52:47.641Z,6.75
2022-11-06T01:55:19.131Z,7.88
2022-11-06T01:57:48.370Z,8.48
2022-11-06T02:00:16.583Z,9.13
2022-11-06T02:02:45.188Z,7.80
2022-11-06T02:05:13.350Z,8.70
2022-11-06T02:07:43.676Z,9.32
2022-11-06T02:10:12.933Z,8.15
2022-11-06T02:12:49.688Z,8.32
2022-11-06T02:15:28.308Z,8.82
2022-11-06T02:18:13.655Z,8.70
2022-11-06T02:20:53.049Z,8.30
2022-11-06T02:23:35.382Z,8.43
2022-11-06T02:26:19.030Z,8.40
2022-11-06T02:28:54.086Z,9.82
2022-11-06T02:31:27.360Z,9.27
2022-11-06T02:34:00.537Z,10.15
2022-11-06T02:36:33.034Z,9.18
2022-11-06T02:39:06.694Z,8.88
2022-11-06T02:41:38.350Z,10.07
2022-11-06T02:44:12.872Z,9.60
2022-11-06T02:46:44.892Z,9.27
2022-11-06T02:49:18.419Z,8.48
2022-11-06T02:51:50.790Z,9.02
2022-11-06T02:54:21.165Z,8.88
2022-11-06T02:59:23.276Z,8.05
2022-11-06T03:01:56.575Z,9.07
2022-11-06T03:04:27.916Z,9.18
2022-11-06T03:07:01.977Z,8.80
2022-11-06T03:09:32.999Z,9.50
2022-11-06T03:12:05.163Z,9.20
2022-11-06T03:14:41.657Z,9.52
2022-11-06T03:17:17.561Z,9.25
2022-11-06T03:19:49.910Z,9.68
2022-11-06T03:22:27.705Z,10.05
2022-11-06T03:25:01.614Z,9.52
2022-11-06T03:27:36.129Z,9.98
2022-11-06T03:30:10.402Z,9.07
2022-11-06T03:32:47.553Z,10.77
2022-11-06T03:35:22.965Z,10.43
2022-11-06T03:37:58.143Z,10.57
2022-11-06T03:40:30.855Z,10.60
2022-11-06T03:43:02.126Z,10.23
2022-11-06T03:45:33.672Z,12.50
2022-11-06T03:48:05.878Z,10.70
2022-11-06T03:50:37.813Z,10.05
2022-11-06T03:53:10.845Z,10.93
2022-11-06T03:55:44.253Z,10.20
2022-11-06T03:58:15.392Z,9.43
2022-11-06T04:00:45.828Z,9.90
2022-11-06T04:03:19.905Z,9.75
2022-11-06T04:05:53.022Z,9.48
2022-11-06T04:08:40.728Z,10.13
2022-11-06T04:11:29.263Z,9.65
2022-11-06T04:14:01.871Z,10.18
2022-11-06T04:16:35.937Z,9.43
2022-11-06T04:19:04.654Z,9.38
2022-11-06T04:21:46.909Z,10.05
2022-11-06T04:24:46.997Z,9.98
2022-11-06T04:27:24.720Z,10.13
2022-11-06T04:30:07.402Z,10.32
2022-11-06T04:32:57.163Z,9.32
2022-11-06T04:35:35.277Z,9.32
2022-11-06T04:38:08.045Z,8.57
2022-11-06T04:40:45.022Z,9.27
2022-11-06T04:43:20.674Z,8.63
2022-11-06T04:45:53.031Z,8.98
2022-11-06T04:48:23.391Z,8.32
2022-11-06T04:55:54.997Z,7.63
2022-11-06T04:58:23.102Z,7.88
2022-11-06T05:00:52.435Z,7.68
2022-11-06T05:03:21.756Z,7.97
2022-11-06T05:05:49.589Z,9.32
2022-11-06T05:08:19.330Z,9.73
2022-11-06T05:10:47.741Z,9.02
2022-11-06T05:13:16.099Z,8.57
2022-11-06T05:15:43.954Z,9.05
2022-11-06T05:18:12.210Z,10.02
2022-11-06T05:20:41.726Z,9.95
2022-11-06T05:23:08.533Z,9.52
2022-11-06T05:25:37.806Z,9.15
2022-11-06T05:28:07.121Z,8.63
2022-11-06T05:30:35.983Z,8.27
2022-11-06T05:33:03.927Z,8.23
2022-11-06T05:35:31.769Z,8.60
2022-11-06T05:38:02.188Z,8.75
2022-11-06T05:40:30.351Z,9.52
2022-11-06T05:42:58.157Z,9.80
2022-11-06T05:45:25.952Z,8.70
2022-11-06T05:47:53.791Z,9.23
2022-11-06T05:50:21.608Z,8.07
2022-11-06T05:52:49.444Z,8.95
2022-11-06T05:55:18.683Z,7.68
2022-11-06T05:57:46.639Z,8.32
2022-11-06T06:00:15.688Z,7.82
2022-11-06T06:02:44.083Z,8.48
2022-11-06T06:05:12.219Z,8.63
2022-11-06T06:07:40.044Z,8.07
2022-11-06T06:10:09.794Z,8.15
2022-11-06T06:12:39.591Z,8.07
2022-11-06T06:15:08.633Z,7.93
2022-11-06T06:17:36.645Z,8.80
2022-11-06T06:20:05.871Z,8.77
2022-11-06T06:22:33.685Z,8.63
2022-11-06T06:25:01.613Z,8.43
2022-11-06T06:27:31.302Z,8.02
2022-11-06T06:30:00.857Z,7.68
2022-11-06T06:32:28.691Z,10.03
2022-11-06T06:34:56.474Z,10.98
2022-11-06T06:37:24.332Z,9.25
2022-11-06T06:39:52.121Z,9.57
2022-11-06T06:42:19.846Z,8.73
2022-11-06T06:44:47.795Z,7.93
2022-11-06T06:47:18.156Z,7.93
2022-11-06T06:52:13.990Z,8.80
2022-11-06T06:54:41.939Z,7.90
2022-11-06T06:57:10.084Z,8.30
2022-11-06T06:59:37.923Z,8.00
2022-11-06T07:02:05.959Z,8.00
2022-11-06T07:04:35.099Z,8.23
2022-11-06T07:07:03.040Z,8.52
2022-11-06T07:09:32.160Z,7.93
2022-11-06T07:12:00.265Z,7.85
2022-11-06T07:14:28.044Z,8.30
2022-11-06T07:16:55.847Z,10.00
2022-11-06T07:19:23.647Z,10.48
2022-11-06T07:21:53.686Z,10.05
2022-11-06T07:24:21.482Z,10.43
2022-11-06T07:26:49.913Z,10.75
2022-11-06T07:29:17.789Z,10.07
2022-11-06T07:31:48.145Z,8.55
2022-11-06T07:34:16.169Z,9.55
2022-11-06T07:36:44.018Z,12.38
2022-11-06T07:39:13.137Z,12.20
2022-11-06T07:41:40.988Z,11.82
2022-11-06T07:44:08.802Z,12.57
2022-11-06T07:46:36.691Z,11.65
2022-11-06T07:49:04.827Z,11.55
2022-11-06T07:51:33.706Z,11.52
2022-11-06T07:54:01.526Z,9.88
2022-11-06T07:56:31.063Z,11.13
2022-11-06T07:58:59.010Z,10.27
2022-11-06T08:01:27.092Z,10.20
2022-11-06T08:03:55.033Z,9.05
2022-11-06T08:06:23.182Z,10.00
2022-11-06T08:08:54.835Z,9.80
2022-11-06T08:11:25.612Z,9.60
2022-11-06T08:13:54.725Z,9.88
2022-11-06T08:16:22.580Z,9.27
2022-11-06T08:18:50.347Z,9.57
2022-11-06T08:21:19.173Z,9.43
2022-11-06T08:23:47.000Z,9.50
2022-11-06T08:26:14.886Z,9.25
2022-11-06T08:28:42.817Z,8.50
2022-11-06T08:31:12.191Z,7.95
2022-11-06T08:33:40.394Z,7.78
2022-11-06T08:36:10.180Z,10.02
2022-11-06T08:38:37.998Z,8.80
2022-11-06T08:41:06.758Z,9.48
2022-11-06T08:43:34.782Z,8.95
2022-11-06T08:46:03.385Z,9.50
2022-11-06T08:48:35.305Z,8.90
2022-11-06T08:51:04.873Z,8.95
2022-11-06T08:53:32.758Z,7.93
2022-11-06T08:56:00.710Z,8.45
2022-11-06T08:58:28.566Z,9.00
2022-11-06T09:00:56.527Z,9.60
2022-11-06T09:03:24.324Z,8.73
2022-11-06T09:05:53.532Z,8.95
2022-11-06T09:08:21.417Z,8.98
2022-11-06T09:10:50.438Z,9.13
2022-11-06T09:13:20.011Z,8.20
2022-11-06T09:15:47.791Z,9.05
2022-11-06T09:18:15.581Z,8.07
2022-11-06T09:20:43.401Z,8.48
2022-11-06T09:23:13.133Z,9.00
2022-11-06T09:25:41.123Z,8.00
2022-11-06T09:28:08.857Z,7.93
2022-11-06T09:30:36.884Z,9.07
2022-11-06T09:33:09.175Z,9.10
2022-11-06T09:35:40.147Z,8.38
2022-11-06T09:38:10.903Z,8.18
2022-11-06T09:40:44.968Z,9.55
2022-11-06T09:43:43.216Z,7.65
2022-11-06T09:46:20.096Z,8.25
2022-11-06T09:48:53.368Z,9.00
2022-11-06T09:51:30.251Z,8.75
2022-11-06T09:54:04.892Z,8.57
2022-11-06T09:56:37.912Z,8.85
2022-11-06T09:59:10.178Z,8.90
2022-11-06T10:01:44.352Z,8.30
2022-11-06T10:04:25.218Z,7.50
2022-11-06T10:06:54.394Z,8.90
2022-11-06T10:09:22.249Z,9.40
2022-11-06T10:12:08.924Z,7.95
2022-11-06T10:14:53.242Z,7.63
2022-11-06T10:17:34.742Z,8.57
2022-11-06T10:20:13.653Z,8.23
2022-11-06T10:22:43.266Z,7.60
2022-11-06T10:25:20.834Z,8.23
2022-11-06T10:28:01.946Z,7.80
2022-11-06T10:30:38.784Z,8.60
2022-11-06T10:33:19.919Z,8.13
2022-11-06T10:35:55.603Z,7.63
2022-11-06T10:38:27.190Z,9.10
2022-11-06T10:40:56.632Z,8.95
2022-11-06T10:43:33.149Z,7.53
2022-11-06T10:46:10.675Z,7.97
2022-11-06T10:48:41.912Z,7.63
2022-11-06T10:51:28.387Z,8.23
2022-11-06T10:54:06.918Z,7.97
2022-11-06T10:56:55.497Z,7.78
2022-11-06T10:59:25.913Z,7.97
2022-11-06T11:01:54.083Z,8.57
2022-11-06T11:04:21.960Z,6.68
2022-11-06T11:06:49.786Z,7.38
2022-11-06T11:09:38.622Z,6.38
2022-11-06T11:12:06.660Z,6.07
2022-11-06T11:14:35.913Z,6.10
2022-11-06T11:17:09.189Z,6.88
2022-11-06T11:19:38.725Z,5.80
2022-11-06T11:22:18.681Z,6.20
2022-11-06T11:25:01.108Z,7.05
2022-11-06T11:27:29.848Z,6.55
2022-11-06T11:29:59.361Z,7.28
2022-11-06T11:32:30.357Z,7.57
2022-11-06T11:34:59.198Z,7.90
2022-11-06T11:37:29.989Z,8.38
2022-11-06T11:40:22.405Z,7.75
2022-11-06T11:42:50.579Z,7.43
2022-11-06T11:45:21.790Z,7.65
2022-11-06T11:47:51.606Z,7.28
2022-11-06T11:50:29.708Z,8.48
2022-11-06T11:53:05.607Z,9.27
2022-11-06T11:55:41.495Z,9.80
2022-11-06T11:58:21.488Z,9.27
2022-11-06T12:00:54.416Z,8.65
2022-11-06T12:03:23.957Z,9.35
2022-11-06T12:05:53.501Z,9.10
2022-11-06T12:08:26.284Z,8.20
2022-11-06T12:10:54.271Z,8.55
2022-11-06T12:13:23.320Z,9.48
2022-11-06T12:15:57.297Z,9.00
2022-11-06T12:18:29.684Z,8.65
2022-11-06T12:21:00.931Z,9.52
2022-11-06T12:23:35.701Z,10.35
2022-11-06T12:26:10.528Z,8.10
2022-11-06T12:28:42.920Z,9.35
2022-11-06T12:31:18.699Z,9.35
2022-11-06T12:34:06.804Z,9.93
2022-11-06T12:36:42.434Z,9.30
2022-11-06T12:39:15.098Z,8.82
2022-11-06T12:41:46.866Z,9.23
2022-11-06T12:44:17.281Z,9.40
2022-11-06T12:50:02.189Z,8.00
2022-11-06T12:52:43.666Z,8.50
2022-11-06T12:55:20.150Z,8.23
2022-11-06T12:58:03.908Z,7.93
2022-11-06T13:00:37.486Z,7.88
2022-11-06T13:03:24.647Z,8.40
2022-11-06T13:06:00.624Z,8.25
2022-11-06T13:08:37.797Z,7.50
2022-11-06T13:11:18.723Z,7.47
2022-11-06T13:14:03.158Z,7.95
2022-11-06T13:16:39.780Z,8.07
2022-11-06T13:19:15.476Z,7.25
2022-11-06T13:22:07.953Z,8.23
2022-11-06T13:24:41.395Z,8.57
2022-11-06T13:27:17.644Z,8.48
2022-11-06T13:29:46.632Z,7.88
2022-11-06T13:32:18.181Z,8.77
2022-11-06T13:34:50.581Z,9.27
2022-11-06T13:37:21.758Z,7.72
2022-11-06T13:39:54.858Z,9.25
2022-11-06T13:42:28.369Z,9.02
2022-11-06T13:44:57.456Z,8.68
2022-11-06T13:47:32.094Z,8.65
2022-11-06T13:50:09.383Z,8.75
2022-11-06T13:52:46.768Z,7.72
2022-11-06T13:55:25.295Z,7.75
2022-11-06T13:58:22.108Z,7.90
2022-11-06T14:01:04.166Z,7.78
2022-11-06T14:03:51.215Z,7.55
2022-11-06T14:06:22.854Z,7.38
2022-11-06T14:08:53.611Z,7.90
2022-11-06T14:11:26.833Z,7.20
2022-11-06T14:14:01.104Z,7.40
2022-11-06T14:16:31.895Z,7.63
2022-11-06T14:19:03.842Z,8.70
2022-11-06T14:21:47.158Z,8.55
2022-11-06T14:24:40.194Z,8.63
2022-11-06T14:27:13.035Z,9.23
2022-11-06T14:30:00.502Z,8.30
2022-11-06T14:32:43.575Z,7.90
2022-11-06T14:35:51.191Z,8.68
2022-11-06T14:38:37.876Z,8.65
2022-11-06T14:41:51.116Z,8.75
2022-11-06T14:44:39.440Z,8.48
2022-11-06T14:47:10.342Z,8.52
2022-11-06T14:49:43.793Z,9.00
2022-11-06T14:52:14.823Z,8.38
2022-11-06T14:54:53.665Z,8.15
2022-11-06T14:57:46.320Z,8.60
2022-11-06T15:00:34.251Z,9.35
2022-11-06T15:03:04.566Z,9.68
2022-11-06T15:05:41.861Z,8.43
2022-11-06T15:08:10.508Z,8.70
2022-11-06T15:10:53.846Z,8.80
2022-11-06T15:13:27.759Z,7.72
2022-11-06T15:15:59.418Z,7.45
2022-11-06T15:18:28.076Z,7.57
2022-11-06T15:20:58.196Z,7.72
2022-11-06T15:23:30.060Z,8.13
2022-11-06T15:26:09.625Z,8.68
2022-11-06T15:28:45.453Z,8.10
2022-11-06T15:31:16.861Z,9.10
2022-11-06T15:34:00.994Z,8.77
2022-11-06T15:36:33.480Z,8.13
2022-11-06T15:39:02.138Z,9.43
2022-11-06T15:41:31.349Z,9.20
2022-11-06T15:43:59.859Z,9.88
2022-11-06T15:46:29.398Z,9.80
2022-11-06T15:49:17.223Z,9.80
2022-11-06T15:51:56.039Z,10.55
2022-11-06T15:54:35.960Z,10.82
2022-11-06T15:57:14.605Z,10.68
2022-11-06T15:59:42.480Z,11.40
2022-11-06T16:02:16.840Z,13.07
2022-11-06T16:04:45.641Z,12.20
2022-11-06T16:07:14.174Z,12.52
2022-11-06T16:09:50.303Z,12.65
2022-11-06T16:12:45.584Z,12.50
2022-11-06T16:15:48.708Z,13.32
2022-11-06T16:18:22.496Z,12.60
2022-11-06T16:20:53.616Z,13.48
2022-11-06T16:23:32.457Z,12.07
2022-11-06T16:26:06.522Z,12.98
2022-11-06T16:28:36.417Z,13.43
2022-11-06T16:31:11.642Z,13.50
2022-11-06T16:33:39.446Z,14.38
2022-11-06T16:36:12.510Z,13.88
2022-11-06T16:38:43.627Z,14.45
2022-11-06T16:41:33.598Z,15.38
2022-11-06T16:44:30.784Z,15.93
2022-11-06T16:47:15.100Z,20.83
2022-11-06T16:49:48.944Z,19.70
2022-11-06T16:52:25.368Z,16.88
2022-11-06T16:54:56.633Z,17.00
2022-11-06T16:57:27.134Z,15.60
2022-11-06T17:02:32.657Z,17.27
2022-11-06T17:05:09.189Z,14.20
2022-11-06T17:07:37.093Z,16.25
2022-11-06T17:10:27.736Z,14.45
2022-11-06T17:15:25.219Z,14.68
2022-11-06T17:17:53.060Z,14.70
2022-11-06T17:20:20.898Z,13.60
2022-11-06T17:22:49.988Z,14.85
2022-11-06T17:25:17.844Z,15.00
2022-11-06T17:27:45.620Z,16.50
2022-11-06T17:30:15.748Z,15.25
2022-11-06T17:32:44.911Z,16.40
2022-11-06T17:35:12.702Z,16.70
2022-11-06T17:37:40.708Z,15.50
2022-11-06T17:40:09.689Z,16.55
2022-11-06T17:42:37.580Z,17.05
2022-11-06T17:45:06.021Z,15.85
2022-11-06T17:47:33.798Z,15.65
2022-11-06T17:50:02.951Z,15.73
2022-11-06T17:52:30.790Z,17.02
2022-11-06T17:54:58.692Z,15.90
2022-11-06T17:57:26.533Z,16.75
2022-11-06T17:59:54.322Z,16.75
2022-11-06T18:02:41.238Z,15.32
2022-11-06T18:05:11.513Z,13.63
2022-11-06T18:07:39.282Z,13.63
2022-11-06T18:10:08.009Z,14.73
2022-11-06T18:12:35.798Z,14.27
2022-11-06T18:15:03.585Z,13.48
2022-11-06T18:17:31.390Z,14.93
2022-11-06T18:19:59.213Z,16.23
2022-11-06T18:22:28.567Z,12.13
2022-11-06T18:24:56.365Z,12.65
2022-11-06T18:27:24.177Z,13.65
2022-11-06T18:29:51.981Z,12.77
2022-11-06T18:32:20.161Z,14.02
2022-11-06T18:34:47.974Z,14.45
2022-11-06T18:37:15.742Z,13.45
2022-11-06T18:39:44.869Z,13.88
2022-11-06T18:42:12.666Z,16.30
2022-11-06T18:44:41.441Z,15.52
2022-11-06T18:47:09.358Z,15.43
2022-11-06T18:49:37.190Z,14.25
2022-11-06T18:52:05.017Z,14.57
2022-11-06T18:54:32.934Z,12.90
2022-11-06T18:57:02.309Z,14.20
2022-11-06T18:59:30.409Z,14.52
2022-11-06T19:01:58.785Z,14.43
2022-11-06T19:04:27.861Z,15.63
2022-11-06T19:06:56.020Z,15.07
2022-11-06T19:09:23.955Z,14.68
2022-11-06T19:11:51.789Z,14.63
2022-11-06T19:14:21.005Z,15.32
2022-11-06T19:16:49.079Z,14.77
2022-11-06T19:19:25.136Z,14.00
2022-11-06T19:21:53.938Z,14.13
2022-11-06T19:24:21.915Z,14.23
2022-11-06T19:26:50.352Z,14.00
2022-11-06T19:29:18.397Z,13.77
2022-11-06T19:31:47.540Z,16.23
2022-11-06T19:34:16.664Z,14.57
2022-11-06T19:36:44.470Z,15.63
2022-11-06T19:39:15.196Z,14.90
2022-11-06T19:41:43.073Z,17.40
2022-11-06T19:44:10.946Z,14.57
2022-11-06T19:46:39.283Z,16.25
2022-11-06T19:49:10.474Z,17.23
2022-11-06T19:51:38.709Z,15.82
2022-11-06T19:54:07.628Z,15.65
2022-11-06T19:56:35.456Z,16.83
2022-11-06T19:59:03.371Z,17.70
2022-11-06T20:01:33.893Z,14.80
2022-11-06T20:04:01.965Z,16.02
2022-11-06T20:06:31.231Z,15.77
2022-11-06T20:08:59.491Z,14.63
2022-11-06T20:11:27.317Z,13.93
2022-11-06T20:13:56.103Z,13.50
2022-11-06T20:16:24.443Z,14.13
2022-11-06T20:18:55.916Z,14.02
2022-11-06T20:21:26.285Z,15.20
2022-11-06T20:23:56.283Z,13.30
2022-11-06T20:26:24.651Z,14.82
2022-11-06T20:28:52.502Z,14.02
2022-11-06T20:31:20.571Z,14.27
2022-11-06T20:33:49.102Z,14.30
2022-11-06T20:36:20.583Z,15.23
2022-11-06T20:38:48.390Z,12.85
2022-11-06T20:41:18.119Z,12.70
2022-11-06T20:43:46.642Z,13.00
2022-11-06T20:46:16.290Z,13.05
2022-11-06T20:48:45.223Z,12.50
2022-11-06T20:51:14.503Z,11.88
2022-11-06T20:53:42.341Z,12.13
2022-11-06T20:56:12.002Z,11.80
2022-11-06T20:58:41.232Z,11.80
2022-11-06T21:01:11.329Z,12.35
2022-11-06T21:03:40.331Z,12.35
2022-11-06T21:06:08.838Z,11.90
2022-11-06T21:08:38.067Z,12.32
2022-11-06T21:11:11.392Z,12.43
2022-11-06T21:13:41.436Z,10.75
2022-11-06T21:16:12.907Z,10.65
2022-11-06T21:18:41.560Z,10.18
2022-11-06T21:21:11.787Z,10.90
2022-11-06T21:23:40.292Z,10.50
2022-11-06T21:26:09.903Z,9.93
2022-11-06T21:28:39.109Z,8.93
2022-11-06T21:31:12.054Z,8.45
2022-11-06T21:33:41.748Z,8.07
2022-11-06T21:36:12.189Z,8.00
2022-11-06T21:41:09.893Z,7.97
2022-11-06T21:43:38.959Z,7.18
2022-11-06T21:46:09.171Z,7.65
2022-11-06T21:48:46.365Z,6.93
2022-11-06T21:51:16.680Z,7.00
2022-11-06T21:54:01.952Z,6.47
2022-11-06T21:56:29.832Z,5.93
2022-11-06T21:58:59.533Z,6.53
2022-11-06T22:01:28.842Z,5.95
2022-11-06T22:03:58.189Z,6.07
2022-11-06T22:06:27.481Z,6.50
2022-11-06T22:08:56.813Z,6.28
2022-11-06T22:11:27.024Z,5.70
2022-11-06T22:13:56.888Z,5.28
2022-11-06T22:16:26.824Z,5.13
2022-11-06T22:18:55.062Z,5.05
2022-11-06T22:21:25.920Z,5.32
2022-11-06T22:23:54.582Z,4.50
2022-11-06T22:26:25.303Z,5.00
2022-11-06T22:28:53.983Z,4.70
2022-11-06T22:31:21.759Z,4.90
2022-11-06T22:33:53.727Z,4.95
2022-11-06T22:36:22.976Z,6.22
2022-11-06T22:38:52.227Z,8.70
2022-11-06T22:41:22.790Z,8.27
2022-11-06T22:46:20.597Z,7.35
2022-11-06T22:48:48.871Z,7.10
2022-11-06T22:51:18.434Z,6.90
2022-11-06T22:53:46.359Z,6.43
2022-11-06T22:56:15.535Z,5.82
2022-11-06T22:58:43.671Z,5.82
2022-11-06T23:01:12.628Z,4.32
2022-11-06T23:03:41.148Z,4.88
2022-11-06T23:06:10.654Z,4.93
2022-11-06T23:08:44.145Z,4.40
2022-11-06T23:11:17.188Z,5.13
2022-11-06T23:13:45.699Z,4.57
2022-11-06T23:16:15.446Z,4.40
2022-11-06T23:18:43.971Z,3.95
2022-11-06T23:21:13.252Z,3.75
2022-11-06T23:23:41.178Z,3.30
2022-11-06T23:26:13.376Z,3.97
2022-11-06T23:28:43.316Z,4.00
2022-11-06T23:31:13.620Z,4.20
2022-11-06T23:33:41.758Z,3.47
2022-11-06T23:36:10.882Z,3.35
2022-11-06T23:38:39.151Z,4.10
2022-11-06T23:41:28.356Z,6.70
2022-11-06T23:43:58.608Z,4.93
2022-11-06T23:46:28.124Z,6.25
2022-11-06T23:48:56.413Z,10.75
2022-11-06T23:51:25.915Z,7.20
2022-11-06T23:53:54.452Z,4.70
2022-11-06T23:56:22.397Z,4.20
2022-11-06T23:58:50.222Z,3.80
